Time;durP1;ratioP1;P1;durP2;ratioP2;P2;SDS_P1;SDS_P2;PMS_P1;PMS_P2;Temp;Humidity;BMP_temperature;BMP_pressure;BME280_temperature;BME280_humidity;BME280_pressure;Samples;Min_cycle;Max_cycle;Signal;HPM_P1;HPM_P2
2022/11/03 00:02:22;;;;;;;9.70;2.63;;;;;;;7.00;100.00;100751.50;4901168;29;20040;-72
2022/11/03 00:04:48;;;;;;;14.37;2.93;;;;;;;7.00;100.00;100753.28;4928132;29;20039;-73
2022/11/03 00:07:21;;;;;;;14.00;3.80;;;;;;;7.16;100.00;100757.09;4944868;29;20042;-73
2022/11/03 00:09:47;;;;;;;8.20;2.42;;;;;;;7.08;100.00;100727.72;4923077;29;20036;-73
2022/11/03 00:12:13;;;;;;;10.70;3.20;;;;;;;7.18;100.00;100723.22;4923708;29;20050;-72
2022/11/03 00:14:38;;;;;;;7.00;3.27;;;;;;;7.15;100.00;100686.34;4906731;29;20429;-74
2022/11/03 00:17:03;;;;;;;10.57;2.43;;;;;;;7.23;100.00;100677.66;4931634;29;20032;-73
2022/11/03 00:19:29;;;;;;;12.50;2.40;;;;;;;7.14;100.00;100659.94;4930652;29;20034;-72
2022/11/03 00:21:57;;;;;;;8.53;2.57;;;;;;;7.13;100.00;100659.09;4933487;29;20369;-74
2022/11/03 00:24:22;;;;;;;8.13;2.92;;;;;;;7.13;100.00;100664.41;4949431;29;20031;-72
2022/11/03 00:26:48;;;;;;;12.50;2.78;;;;;;;7.10;100.00;100653.25;4929855;29;20063;-73
2022/11/03 00:29:14;;;;;;;15.43;2.80;;;;;;;6.97;100.00;100650.88;4903347;29;20095;-72
2022/11/03 00:31:41;;;;;;;10.18;2.70;;;;;;;6.96;100.00;100670.44;4895191;29;20036;-73
2022/11/03 00:34:07;;;;;;;17.50;3.20;;;;;;;6.92;100.00;100684.97;4920202;29;20060;-73
2022/11/03 00:36:35;;;;;;;18.95;3.10;;;;;;;6.87;100.00;100697.84;4943005;29;20122;-73
2022/11/03 00:39:02;;;;;;;10.50;3.63;;;;;;;6.83;100.00;100699.91;4907029;29;20083;-73
2022/11/03 00:41:28;;;;;;;12.27;2.83;;;;;;;6.87;100.00;100708.44;4937913;29;20085;-72
2022/11/03 00:43:54;;;;;;;11.97;2.60;;;;;;;6.88;100.00;100721.59;4938965;29;20110;-73
2022/11/03 00:46:21;;;;;;;10.13;2.75;;;;;;;6.81;100.00;100706.34;4923737;29;21218;-73
2022/11/03 00:48:47;;;;;;;16.00;3.97;;;;;;;6.79;100.00;100716.25;4937615;29;20074;-73
2022/11/03 00:51:18;;;;;;;12.60;3.50;;;;;;;6.76;100.00;100717.38;4925531;29;20478;-73
2022/11/03 00:53:46;;;;;;;10.90;2.70;;;;;;;6.75;100.00;100729.81;4922904;29;20048;-74
2022/11/03 00:56:16;;;;;;;10.43;2.72;;;;;;;6.78;100.00;100733.16;4948764;29;20039;-72
2022/11/03 00:58:43;;;;;;;23.30;4.32;;;;;;;6.71;100.00;100733.69;4933222;29;20136;-72
2022/11/03 01:01:12;;;;;;;17.00;2.90;;;;;;;6.72;100.00;100742.53;4926282;29;20075;-72
2022/11/03 01:03:39;;;;;;;13.52;2.80;;;;;;;6.65;100.00;100744.03;4947819;28;20206;-74
2022/11/03 01:08:54;;;;;;;12.88;3.75;;;;;;;6.65;100.00;100758.16;4897803;29;20047;-73
2022/11/03 01:14:07;;;;;;;15.35;2.67;;;;;;;6.66;100.00;100741.25;4921283;29;20032;-72
2022/11/03 01:16:32;;;;;;;9.57;2.65;;;;;;;6.68;100.00;100747.25;4905011;29;20024;-73
2022/11/03 01:18:58;;;;;;;10.47;2.57;;;;;;;6.69;100.00;100738.31;4922417;29;20053;-73
2022/11/03 01:21:24;;;;;;;10.10;2.63;;;;;;;6.74;100.00;100730.78;4914147;29;20036;-72
2022/11/03 01:23:49;;;;;;;16.77;3.47;;;;;;;6.76;100.00;100712.91;4938212;29;20298;-72
2022/11/03 01:26:15;;;;;;;12.38;3.15;;;;;;;6.83;100.00;100691.13;4930183;29;20031;-73
2022/11/03 01:28:43;;;;;;;12.00;2.30;;;;;;;6.80;100.00;100681.63;4929440;29;20031;-74
2022/11/03 01:31:16;;;;;;;10.63;2.35;;;;;;;6.84;100.00;100664.44;4942233;29;20496;-73
2022/11/03 01:33:44;;;;;;;13.13;3.92;;;;;;;6.82;100.00;100662.91;4905371;29;20044;-72
2022/11/03 01:36:11;;;;;;;10.35;3.10;;;;;;;6.84;100.00;100653.84;4937379;29;20858;-73
2022/11/03 01:38:36;;;;;;;12.02;3.00;;;;;;;6.75;100.00;100631.63;4937553;29;20043;-73
2022/11/03 01:41:04;;;;;;;16.55;2.78;;;;;;;6.70;100.00;100639.19;4963614;28;20027;-72
2022/11/03 01:43:33;;;;;;;17.58;2.67;;;;;;;6.69;100.00;100647.25;4932160;29;20035;-74
2022/11/03 01:46:04;;;;;;;7.60;2.33;;;;;;;6.73;100.00;100652.16;4910983;29;20401;-72
2022/11/03 01:48:31;;;;;;;12.95;3.17;;;;;;;6.70;100.00;100641.00;4933435;29;20098;-75
2022/11/03 01:50:57;;;;;;;8.52;2.47;;;;;;;6.63;100.00;100638.06;4925064;29;20082;-72
2022/11/03 01:53:22;;;;;;;12.07;2.30;;;;;;;6.66;100.00;100651.03;4917333;29;20434;-72
2022/11/03 01:55:49;;;;;;;9.20;2.58;;;;;;;6.61;100.00;100649.78;4902582;29;20486;-73
2022/11/03 01:58:20;;;;;;;10.00;2.95;;;;;;;6.63;100.00;100640.72;4918632;29;20031;-75
2022/11/03 02:00:48;;;;;;;8.60;2.72;;;;;;;6.65;100.00;100640.56;4926258;29;20527;-72
2022/11/03 02:03:15;;;;;;;10.63;2.40;;;;;;;6.62;100.00;100644.31;4915227;29;20098;-72
2022/11/03 02:05:43;;;;;;;14.02;3.55;;;;;;;6.57;100.00;100648.38;4936725;29;20040;-72
2022/11/03 02:08:17;;;;;;;8.00;2.58;;;;;;;6.55;100.00;100656.47;4941532;29;20019;-72
2022/11/03 02:10:46;;;;;;;10.90;2.58;;;;;;;6.57;100.00;100657.19;4921647;29;20050;-74
2022/11/03 02:13:18;;;;;;;8.45;3.25;;;;;;;6.61;100.00;100674.50;4928086;29;20036;-73
2022/11/03 02:15:47;;;;;;;9.82;3.05;;;;;;;6.60;100.00;100661.38;4921433;29;20098;-73
2022/11/03 02:18:14;;;;;;;9.05;3.10;;;;;;;6.67;100.00;100659.81;4942644;29;20047;-72
2022/11/03 02:20:41;;;;;;;10.98;2.90;;;;;;;6.67;100.00;100652.72;4921516;29;20119;-74
2022/11/03 02:23:22;;;;;;;12.52;2.92;;;;;;;6.65;100.00;100638.75;4904540;29;20118;-73
2022/11/03 02:25:51;;;;;;;10.05;3.60;;;;;;;6.63;100.00;100632.75;4918964;29;20040;-72
2022/11/03 02:28:22;;;;;;;11.85;2.65;;;;;;;6.57;100.00;100633.31;4911924;29;20035;-73
2022/11/03 02:31:00;;;;;;;10.77;3.60;;;;;;;6.57;100.00;100637.78;4939503;28;20122;-73
2022/11/03 02:33:33;;;;;;;9.38;2.42;;;;;;;6.52;100.00;100631.06;4915793;29;20126;-72
2022/11/03 02:36:09;;;;;;;9.43;2.63;;;;;;;6.53;100.00;100642.50;4928998;29;20039;-73
2022/11/03 02:38:43;;;;;;;14.30;2.70;;;;;;;6.58;100.00;100650.06;4928353;29;20032;-74
2022/11/03 02:41:11;;;;;;;6.25;2.53;;;;;;;6.61;100.00;100644.47;4893606;29;20040;-73
2022/11/03 02:43:37;;;;;;;9.00;2.58;;;;;;;6.62;100.00;100632.88;4924542;29;20116;-73
2022/11/03 02:46:05;;;;;;;14.70;2.58;;;;;;;6.62;100.00;100625.75;4919720;29;20541;-73
2022/11/03 02:48:31;;;;;;;9.70;3.03;;;;;;;6.70;100.00;100623.25;4912056;29;20078;-73
2022/11/03 02:50:56;;;;;;;10.57;2.90;;;;;;;6.65;100.00;100609.59;4899060;29;20114;-72
2022/11/03 02:53:21;;;;;;;10.70;2.80;;;;;;;6.70;100.00;100603.84;4940813;29;20462;-74
2022/11/03 02:56:02;;;;;;;11.40;3.03;;;;;;;6.62;100.00;100583.31;4919434;29;20059;-73
2022/11/03 02:58:37;;;;;;;8.68;2.63;;;;;;;6.66;100.00;100595.31;4943332;29;20051;-73
2022/11/03 03:01:31;;;;;;;12.23;2.50;;;;;;;6.60;100.00;100587.91;4936570;29;20036;-73
2022/11/03 03:04:07;;;;;;;6.25;2.33;;;;;;;6.57;100.00;100593.50;4895826;29;20127;-72
2022/11/03 03:06:38;;;;;;;12.05;2.25;;;;;;;6.57;100.00;100596.16;4928574;29;20494;-73
2022/11/03 03:09:09;;;;;;;11.23;2.75;;;;;;;6.59;100.00;100596.88;4939809;29;20449;-74
2022/11/03 03:11:39;;;;;;;13.00;2.65;;;;;;;6.51;100.00;100588.78;4913773;29;20032;-74
2022/11/03 03:14:11;;;;;;;13.43;2.92;;;;;;;6.42;100.00;100600.22;4943234;29;20884;-74
2022/11/03 03:16:54;;;;;;;7.10;1.95;;;;;;;6.51;100.00;100620.63;4928471;29;20036;-73
2022/11/03 03:19:44;;;;;;;7.28;2.30;;;;;;;6.48;100.00;100623.53;4935894;29;20035;-75
2022/11/03 03:22:20;;;;;;;10.35;2.75;;;;;;;6.55;100.00;100632.59;4920830;29;20043;-75
2022/11/03 03:25:05;;;;;;;8.68;2.78;;;;;;;6.60;100.00;100617.09;4935665;29;20473;-73
2022/11/03 03:27:33;;;;;;;7.77;2.43;;;;;;;6.58;100.00;100597.84;4908391;29;20044;-72
2022/11/03 03:30:05;;;;;;;6.47;2.15;;;;;;;6.55;100.00;100590.16;4911762;29;20279;-72
2022/11/03 03:32:36;;;;;;;19.33;4.75;;;;;;;6.49;100.00;100604.00;4911454;29;20048;-72
2022/11/03 03:35:06;;;;;;;8.80;2.83;;;;;;;6.44;100.00;100600.91;4920884;29;20036;-73
2022/11/03 03:37:36;;;;;;;10.73;3.83;;;;;;;6.44;100.00;100595.59;4903390;29;20482;-73
2022/11/03 03:40:06;;;;;;;16.20;3.05;;;;;;;6.46;100.00;100580.38;4920508;29;20031;-73
2022/11/03 03:42:35;;;;;;;11.15;2.67;;;;;;;6.50;100.00;100577.31;4903898;29;20111;-74
2022/11/03 03:45:00;;;;;;;8.95;2.35;;;;;;;6.45;100.00;100555.69;4899290;29;20043;-72
2022/11/03 03:47:28;;;;;;;7.45;2.80;;;;;;;6.42;100.00;100545.38;4946079;29;20035;-73
2022/11/03 03:49:54;;;;;;;12.52;2.60;;;;;;;6.36;100.00;100534.47;4938345;29;20492;-73
2022/11/03 03:52:20;;;;;;;6.03;2.65;;;;;;;6.36;100.00;100545.91;4899303;29;20163;-75
2022/11/03 03:54:46;;;;;;;19.05;3.17;;;;;;;6.33;100.00;100540.91;4906934;29;20075;-73
2022/11/03 03:57:15;;;;;;;17.50;3.20;;;;;;;6.28;100.00;100551.94;4944133;29;20023;-72
2022/11/03 03:59:42;;;;;;;13.48;3.72;;;;;;;6.33;100.00;100557.66;4942542;29;20295;-72
2022/11/03 04:02:07;;;;;;;9.85;2.28;;;;;;;6.29;100.00;100548.28;4945494;29;20115;-72
2022/11/03 04:04:33;;;;;;;9.77;2.25;;;;;;;6.25;100.00;100541.63;4914592;29;20126;-72
2022/11/03 04:09:42;;;;;;;6.88;3.08;;;;;;;6.18;100.00;100561.72;4922381;29;20035;-72
2022/11/03 04:23:09;;;;;;;7.28;2.10;;;;;;;6.16;100.00;100563.66;4927436;29;20075;-73
2022/11/03 04:25:34;;;;;;;14.67;3.07;;;;;;;6.10;100.00;100567.66;4921374;29;20027;-74
2022/11/03 04:28:00;;;;;;;14.37;3.10;;;;;;;6.10;100.00;100564.19;4923028;29;20070;-73
2022/11/03 04:30:26;;;;;;;7.43;2.53;;;;;;;6.19;100.00;100571.31;4938740;29;20063;-72
2022/11/03 04:32:51;;;;;;;12.77;2.87;;;;;;;6.14;100.00;100557.66;4900540;29;20092;-73
2022/11/03 04:35:26;;;;;;;12.00;2.97;;;;;;;6.15;100.00;100547.88;4926447;29;20042;-72
2022/11/03 04:37:59;;;;;;;8.45;2.40;;;;;;;6.15;100.00;100538.09;4921384;29;20132;-72
2022/11/03 04:40:26;;;;;;;6.45;2.17;;;;;;;6.15;100.00;100532.81;4938726;29;20071;-75
2022/11/03 04:42:51;;;;;;;13.65;2.92;;;;;;;6.19;100.00;100544.81;4906194;29;20050;-71
2022/11/03 04:45:27;;;;;;;7.30;3.15;;;;;;;6.18;100.00;100540.50;4921844;29;20040;-73
2022/11/03 04:47:53;;;;;;;;;;;;;;;6.14;100.00;100536.44;4898771;29;20122;-72
2022/11/03 04:50:22;;;;;;;10.68;3.28;;;;;;;6.18;100.00;100540.50;4937881;29;20857;-72
2022/11/03 04:52:50;;;;;;;9.40;2.60;;;;;;;6.20;100.00;100535.88;4898317;29;20444;-72
2022/11/03 04:55:19;;;;;;;12.90;2.85;;;;;;;6.20;100.00;100535.03;4889390;29;20059;-73
2022/11/03 04:57:44;;;;;;;11.75;3.88;;;;;;;6.23;100.00;100527.66;4912195;29;20035;-73
2022/11/03 05:00:18;;;;;;;10.25;2.90;;;;;;;6.20;100.00;100519.97;4919832;29;20040;-74
2022/11/03 05:02:45;;;;;;;8.77;2.38;;;;;;;6.14;100.00;100528.50;4919809;29;20035;-73
2022/11/03 05:05:18;;;;;;;8.15;3.17;;;;;;;6.15;100.00;100539.94;4904687;29;20031;-72
2022/11/03 05:07:47;;;;;;;7.10;2.40;;;;;;;6.20;100.00;100549.13;4913468;29;20032;-73
2022/11/03 05:10:16;;;;;;;6.90;2.78;;;;;;;6.16;100.00;100550.41;4917375;29;20038;-72
2022/11/03 05:12:42;;;;;;;9.07;2.83;;;;;;;6.13;100.00;100550.66;4921397;29;20032;-73
2022/11/03 05:15:25;;;;;;;15.32;3.25;;;;;;;6.12;100.00;100571.03;4919302;29;20097;-73
2022/11/03 05:17:51;;;;;;;20.95;4.38;;;;;;;6.09;100.00;100581.09;4927210;29;20032;-72
2022/11/03 05:20:32;;;;;;;7.40;2.80;;;;;;;6.12;100.00;100586.09;4932694;29;20035;-73
2022/11/03 05:22:59;;;;;;;8.27;2.60;;;;;;;6.15;100.00;100598.25;4925854;29;20064;-72
2022/11/03 05:25:30;;;;;;;;;;;;;;;6.17;100.00;100602.44;4897308;29;20211;-73
2022/11/03 05:27:55;;;;;;;13.27;3.28;;;;;;;6.16;100.00;100603.41;4944773;29;19945;-73
2022/11/03 05:30:21;;;;;;;11.67;2.63;;;;;;;6.20;100.00;100612.75;4897662;29;20632;-72
2022/11/03 05:32:46;;;;;;;8.73;2.73;;;;;;;6.21;100.00;100597.69;4920390;29;20051;-73
2022/11/03 05:35:20;;;;;;;12.20;3.17;;;;;;;6.22;100.00;100613.44;4922609;29;20099;-73
2022/11/03 05:37:45;;;;;;;10.30;2.88;;;;;;;6.23;100.00;100603.72;4911070;29;20043;-73
2022/11/03 05:40:20;;;;;;;21.00;4.10;;;;;;;6.21;100.00;100601.19;4918757;29;20036;-72
2022/11/03 05:42:51;;;;;;;18.77;3.45;;;;;;;6.14;100.00;100589.47;4894129;29;20543;-74
2022/11/03 05:45:25;;;;;;;11.63;2.88;;;;;;;6.09;100.00;100597.00;4884345;29;20383;-72
2022/11/03 05:47:54;;;;;;;9.80;3.05;;;;;;;6.11;100.00;100608.25;4927361;29;20028;-72
2022/11/03 05:50:23;;;;;;;11.20;2.47;;;;;;;6.17;100.00;100609.53;4916078;29;20024;-74
2022/11/03 05:52:53;;;;;;;6.93;2.40;;;;;;;6.13;100.00;100603.66;4922145;29;20083;-72
2022/11/03 05:55:29;;;;;;;11.65;2.22;;;;;;;6.13;100.00;100606.31;4921649;29;20031;-72
2022/11/03 05:57:57;;;;;;;7.25;2.90;;;;;;;6.19;100.00;100600.47;4896765;29;20034;-74
2022/11/03 06:00:38;;;;;;;11.68;3.40;;;;;;;6.20;100.00;100599.50;4936707;29;20051;-72
2022/11/03 06:03:03;;;;;;;8.30;2.30;;;;;;;6.23;100.00;100604.53;4905744;29;20405;-72
2022/11/03 06:05:30;;;;;;;12.45;3.30;;;;;;;6.25;100.00;100602.59;4904525;29;20031;-72
2022/11/03 06:08:01;;;;;;;14.60;3.53;;;;;;;6.25;100.00;100588.47;4921563;29;20091;-72
2022/11/03 06:10:29;;;;;;;10.15;2.67;;;;;;;6.26;100.00;100588.34;4904591;29;20031;-72
2022/11/03 06:12:59;;;;;;;9.85;2.95;;;;;;;6.21;100.00;100579.97;4871272;29;20074;-75
2022/11/03 06:15:31;;;;;;;16.02;3.75;;;;;;;6.28;100.00;100581.09;4917503;29;20063;-72
2022/11/03 06:17:56;;;;;;;9.98;3.08;;;;;;;6.30;100.00;100583.63;4908608;29;20032;-72
2022/11/03 06:20:22;;;;;;;12.10;3.72;;;;;;;6.26;100.00;100561.84;4926638;29;20105;-72
2022/11/03 06:22:51;;;;;;;10.73;2.45;;;;;;;6.31;100.00;100575.50;4946056;29;20445;-72
2022/11/03 06:25:28;;;;;;;10.85;3.22;;;;;;;6.38;100.00;100577.59;4947221;29;20065;-72
2022/11/03 06:27:59;;;;;;;7.53;2.53;;;;;;;6.44;100.00;100569.06;4944883;29;20565;-72
2022/11/03 06:30:28;;;;;;;8.00;2.80;;;;;;;6.41;100.00;100562.25;4945655;29;20035;-75
2022/11/03 06:33:09;;;;;;;13.38;3.40;;;;;;;6.46;100.00;100556.53;4914273;29;20048;-72
2022/11/03 06:35:34;;;;;;;11.73;2.67;;;;;;;6.49;100.00;100553.59;4921494;29;20591;-74
2022/11/03 06:38:00;;;;;;;9.10;3.08;;;;;;;6.53;100.00;100542.56;4911514;29;20023;-72
2022/11/03 06:40:34;;;;;;;10.68;2.33;;;;;;;6.52;100.00;100534.75;4920206;29;20053;-72
2022/11/03 06:43:09;;;;;;;10.20;2.25;;;;;;;6.56;100.00;100533.50;4945300;28;20037;-72
2022/11/03 06:45:34;;;;;;;9.52;3.28;;;;;;;6.55;100.00;100526.50;4921129;29;20126;-72
2022/11/03 06:48:01;;;;;;;16.37;4.23;;;;;;;6.56;100.00;100525.53;4894533;29;20166;-72
2022/11/03 06:50:30;;;;;;;13.05;3.20;;;;;;;6.54;100.00;100532.78;4942029;29;20123;-72
2022/11/03 06:52:57;;;;;;;15.20;3.85;;;;;;;6.57;100.00;100524.53;4946209;29;20415;-72
2022/11/03 06:55:25;;;;;;;12.90;3.42;;;;;;;6.69;100.00;100536.66;4945417;29;20035;-72
2022/11/03 06:57:56;;;;;;;15.05;2.70;;;;;;;6.71;100.00;100523.28;4943820;29;20118;-72
2022/11/03 07:00:23;;;;;;;13.48;3.45;;;;;;;6.79;100.00;100525.19;4912803;29;20433;-72
2022/11/03 07:03:18;;;;;;;8.95;2.90;;;;;;;6.82;100.00;100503.69;4927481;29;20066;-72
2022/11/03 07:05:46;;;;;;;12.43;3.35;;;;;;;6.80;100.00;100498.53;4918213;29;20111;-72
2022/11/03 07:08:23;;;;;;;11.23;2.60;;;;;;;6.81;100.00;100494.06;4915948;29;20028;-72
2022/11/03 07:10:56;;;;;;;9.07;2.70;;;;;;;6.90;100.00;100498.50;4942283;29;20057;-72
2022/11/03 07:13:23;;;;;;;12.10;2.83;;;;;;;6.87;100.00;100491.66;4921798;29;20124;-72
2022/11/03 07:15:49;;;;;;;11.85;2.95;;;;;;;6.91;100.00;100481.59;4904115;29;20040;-72
2022/11/03 07:18:22;;;;;;;11.50;3.28;;;;;;;6.93;100.00;100480.47;4923230;29;20015;-72
2022/11/03 07:20:49;;;;;;;12.90;3.00;;;;;;;7.00;100.00;100475.44;4927642;29;20615;-72
2022/11/03 07:23:20;;;;;;;10.10;2.63;;;;;;;7.04;100.00;100468.81;4921923;29;20035;-72
2022/11/03 07:25:52;;;;;;;12.52;4.03;;;;;;;7.11;100.00;100461.13;4943725;28;20134;-72
2022/11/03 07:28:17;;;;;;;10.90;2.50;;;;;;;7.14;100.00;100451.06;4941079;29;20031;-72
2022/11/03 07:30:42;;;;;;;7.50;2.77;;;;;;;7.20;100.00;100468.19;4937267;29;20113;-71
2022/11/03 07:33:14;;;;;;;16.30;3.53;;;;;;;7.25;100.00;100446.50;4895832;29;20730;-72
2022/11/03 07:35:42;;;;;;;6.63;2.72;;;;;;;7.33;100.00;100450.09;4934598;29;20103;-72
2022/11/03 07:38:13;;;;;;;12.27;3.22;;;;;;;7.43;100.00;100438.59;4934596;29;20122;-72
2022/11/03 07:40:39;;;;;;;14.02;3.58;;;;;;;7.44;100.00;100413.69;4942083;29;20035;-72
2022/11/03 07:43:13;;;;;;;;;;;;;;;7.35;100.00;100395.03;4909549;29;20020;-72
2022/11/03 07:45:45;;;;;;;7.75;2.25;;;;;;;7.43;100.00;100394.28;4926152;29;19925;-72
2022/11/03 07:48:15;;;;;;;11.95;3.03;;;;;;;7.52;100.00;100390.72;4916875;29;20112;-72
2022/11/03 07:50:40;;;;;;;9.57;2.90;;;;;;;7.51;100.00;100383.72;4928364;29;20042;-72
2022/11/03 07:53:35;;;;;;;11.20;2.27;;;;;;;7.46;100.00;100369.22;4957207;28;20036;-72
2022/11/03 07:56:01;;;;;;;5.88;3.40;;;;;;;7.39;100.00;100369.81;4918695;29;20131;-73
2022/11/03 07:58:38;;;;;;;10.38;2.28;;;;;;;7.45;100.00;100394.97;4920945;29;20099;-72
2022/11/03 08:01:21;;;;;;;10.40;2.92;;;;;;;7.39;100.00;100379.59;4928507;29;20138;-73
2022/11/03 08:03:47;;;;;;;10.45;3.10;;;;;;;7.59;100.00;100402.41;4911212;29;20039;-71
2022/11/03 08:06:12;;;;;;;11.50;2.20;;;;;;;7.56;100.00;100397.41;4918460;29;20079;-72
2022/11/03 08:08:38;;;;;;;10.17;2.90;;;;;;;7.48;100.00;100377.88;4920109;29;20039;-72
2022/11/03 08:11:04;;;;;;;11.95;3.63;;;;;;;7.52;100.00;100389.88;4903244;29;20871;-72
2022/11/03 08:13:30;;;;;;;8.25;2.60;;;;;;;7.51;100.00;100388.19;4919974;29;20031;-72
2022/11/03 08:15:55;;;;;;;8.32;3.05;;;;;;;7.53;100.00;100387.06;4916345;29;20123;-72
2022/11/03 08:18:21;;;;;;;10.80;2.15;;;;;;;7.53;100.00;100375.59;4916845;29;20080;-73
2022/11/03 08:20:46;;;;;;;6.73;1.90;;;;;;;7.63;100.00;100392.28;4918859;29;20071;-73
2022/11/03 08:23:11;;;;;;;10.33;2.63;;;;;;;7.58;100.00;100376.81;4920080;29;20087;-72
2022/11/03 08:25:37;;;;;;;12.03;2.37;;;;;;;7.68;100.00;100378.53;4918259;29;20516;-72
2022/11/03 08:28:03;;;;;;;12.57;4.27;;;;;;;7.64;100.00;100361.25;4919660;29;20042;-73
2022/11/03 08:30:29;;;;;;;17.15;2.78;;;;;;;7.71;100.00;100360.50;4920034;29;20091;-72
2022/11/03 08:32:54;;;;;;;6.63;2.33;;;;;;;7.75;100.00;100337.09;4923444;29;20042;-72
2022/11/03 08:35:20;;;;;;;20.30;2.73;;;;;;;7.81;100.00;100355.09;4923200;29;20043;-72
2022/11/03 08:37:45;;;;;;;12.07;3.90;;;;;;;7.91;100.00;100347.84;4898706;29;20043;-72
2022/11/03 08:40:11;;;;;;;13.53;3.13;;;;;;;7.88;100.00;100340.19;4937904;29;20024;-72
2022/11/03 08:42:36;;;;;;;10.25;2.53;;;;;;;7.97;100.00;100359.69;4923079;29;20379;-72
2022/11/03 08:45:02;;;;;;;12.53;2.63;;;;;;;8.07;100.00;100356.94;4921519;29;20094;-72
2022/11/03 08:47:27;;;;;;;10.47;2.60;;;;;;;8.06;100.00;100329.53;4923492;29;20040;-72
2022/11/03 08:49:52;;;;;;;12.57;2.60;;;;;;;8.08;100.00;100314.25;4922707;29;20032;-72
2022/11/03 08:52:18;;;;;;;12.73;3.20;;;;;;;8.12;100.00;100298.78;4921952;29;20028;-73
2022/11/03 08:54:44;;;;;;;3.20;2.35;;;;;;;8.07;100.00;100293.94;4921096;29;20042;-72
2022/11/03 08:57:09;;;;;;;9.17;2.50;;;;;;;8.07;100.00;100282.50;4909252;29;20051;-72
2022/11/03 08:59:34;;;;;;;4.53;2.33;;;;;;;8.15;100.00;100290.53;4945428;29;20027;-72
2022/11/03 09:02:00;;;;;;;10.87;2.83;;;;;;;8.19;100.00;100267.91;4927241;29;20040;-72
2022/11/03 09:04:25;;;;;;;9.93;2.53;;;;;;;8.15;100.00;100243.50;4902576;29;20115;-72
2022/11/03 09:06:50;;;;;;;9.17;2.83;;;;;;;8.19;100.00;100255.47;4921650;29;20046;-72
2022/11/03 09:09:16;;;;;;;6.60;3.03;;;;;;;8.34;100.00;100265.50;4922853;29;20035;-73
2022/11/03 09:11:41;;;;;;;15.03;2.57;;;;;;;8.40;100.00;100233.78;4921387;29;20493;-73
2022/11/03 09:14:06;;;;;;;12.37;3.77;;;;;;;8.52;100.00;100233.50;4921432;29;20512;-72
2022/11/03 09:16:32;;;;;;;12.83;2.67;;;;;;;8.48;100.00;100210.91;4944731;29;20098;-72
2022/11/03 09:18:57;;;;;;;14.27;2.87;;;;;;;8.49;100.00;100176.13;4945466;29;20035;-72
2022/11/03 09:21:22;;;;;;;14.13;2.43;;;;;;;8.69;100.00;100197.97;4944238;29;20034;-72
2022/11/03 09:23:48;;;;;;;9.87;2.90;;;;;;;8.77;100.00;100186.50;4938809;29;20770;-73
2022/11/03 09:26:13;;;;;;;9.77;3.13;;;;;;;8.79;100.00;100158.72;4922127;29;20621;-73
2022/11/03 09:28:38;;;;;;;7.53;2.53;;;;;;;8.85;100.00;100142.09;4921252;29;20099;-73
2022/11/03 09:31:04;;;;;;;9.10;2.50;;;;;;;8.94;100.00;100128.78;4930830;29;20039;-73
2022/11/03 09:33:29;;;;;;;13.00;3.53;;;;;;;9.07;100.00;100113.13;4922396;29;20036;-73
2022/11/03 09:35:55;;;;;;;5.97;2.20;;;;;;;8.93;100.00;100072.03;4920363;29;20038;-72
2022/11/03 09:38:20;;;;;;;11.73;2.70;;;;;;;8.81;100.00;100052.91;4923762;29;20115;-72
2022/11/03 09:40:45;;;;;;;9.83;2.87;;;;;;;8.69;100.00;100072.06;4919881;29;20064;-72
2022/11/03 09:43:11;;;;;;;5.03;2.23;;;;;;;8.85;100.00;100133.28;4922065;29;20059;-73
2022/11/03 09:45:37;;;;;;;8.70;3.13;;;;;;;8.87;100.00;100116.16;4920869;29;20291;-72
2022/11/03 09:48:03;;;;;;;;;;;;;;;8.93;100.00;100092.50;4902107;29;20020;-72
2022/11/03 09:50:28;;;;;;;15.90;2.38;;;;;;;8.96;100.00;100092.16;4901989;29;19915;-73
2022/11/03 09:52:55;;;;;;;9.10;2.73;;;;;;;8.87;100.00;100120.63;4904707;29;20039;-72
2022/11/03 09:55:24;;;;;;;9.25;2.70;;;;;;;8.78;100.00;100106.50;4921649;29;20622;-73
2022/11/03 09:57:52;;;;;;;11.63;2.42;;;;;;;8.97;100.00;100160.41;4920625;29;20568;-72
2022/11/03 10:00:19;;;;;;;10.82;2.67;;;;;;;9.15;100.00;100163.72;4922024;29;20171;-72
2022/11/03 10:02:45;;;;;;;18.15;4.32;;;;;;;9.17;100.00;100131.59;4887636;29;20122;-73
2022/11/03 10:05:27;;;;;;;12.10;2.33;;;;;;;9.30;100.00;100135.41;4916502;29;20068;-72
2022/11/03 10:08:04;;;;;;;6.57;2.50;;;;;;;9.44;100.00;100088.59;4921109;29;20050;-73
2022/11/03 10:10:31;;;;;;;11.07;3.75;;;;;;;9.37;100.00;100057.47;4921812;29;20039;-73
2022/11/03 10:12:58;;;;;;;12.55;5.15;;;;;;;9.54;100.00;100067.06;4912490;29;20039;-73
2022/11/03 10:15:25;;;;;;;10.65;3.50;;;;;;;9.69;100.00;100035.19;4904513;29;20028;-73
2022/11/03 10:17:51;;;;;;;8.18;3.08;;;;;;;9.49;100.00;99982.31;4901831;29;20059;-72
2022/11/03 10:20:18;;;;;;;;;;;;;;;9.67;100.00;100019.38;4907815;29;20078;-74
2022/11/03 10:22:46;;;;;;;9.57;3.08;;;;;;;9.72;100.00;100025.00;4909899;29;19921;-73
2022/11/03 10:25:27;;;;;;;10.85;2.88;;;;;;;9.90;100.00;100024.75;4919707;29;20548;-72
2022/11/03 10:28:14;;;;;;;8.68;3.13;;;;;;;10.02;100.00;99979.00;4944269;29;20035;-72
2022/11/03 10:31:06;;;;;;;13.05;2.72;;;;;;;10.32;100.00;100006.66;4926523;29;20457;-73
2022/11/03 10:33:54;;;;;;;7.30;2.53;;;;;;;10.24;100.00;99910.66;4919739;29;20119;-73
2022/11/03 10:36:21;;;;;;;10.35;2.85;;;;;;;10.20;100.00;99920.84;4920829;29;20086;-73
2022/11/03 10:38:47;;;;;;;13.38;3.53;;;;;;;10.31;100.00;99935.63;4919131;29;20023;-73
2022/11/03 10:41:17;;;;;;;8.90;2.00;;;;;;;10.68;100.00;99955.31;4916798;29;20397;-73
2022/11/03 10:43:57;;;;;;;10.25;2.05;;;;;;;10.89;100.00;99936.72;4935023;29;20035;-73
2022/11/03 10:46:22;;;;;;;9.77;2.20;;;;;;;10.86;100.00;99851.63;4940396;29;20032;-72
2022/11/03 10:49:11;;;;;;;8.70;2.07;;;;;;;10.56;100.00;99813.47;4911747;29;20023;-72
2022/11/03 10:51:37;;;;;;;7.72;2.53;;;;;;;10.69;100.00;99919.59;4903011;29;20031;-73
2022/11/03 10:54:03;;;;;;;7.78;2.05;;;;;;;10.81;100.00;99883.38;4900200;29;20122;-72
2022/11/03 10:56:31;;;;;;;11.38;2.65;;;;;;;10.96;100.00;99883.41;4898386;29;20028;-73
2022/11/03 10:58:58;;;;;;;9.77;2.25;;;;;;;11.18;100.00;99870.91;4927201;29;20028;-73
2022/11/03 11:01:24;;;;;;;8.93;1.85;;;;;;;11.15;100.00;99828.56;4919181;29;20063;-73
2022/11/03 11:03:49;;;;;;;11.77;2.63;;;;;;;11.11;100.00;99800.56;4915081;29;20553;-73
2022/11/03 11:06:24;;;;;;;19.00;2.50;;;;;;;11.11;100.00;99784.53;4907154;29;20052;-73
2022/11/03 11:08:56;;;;;;;4.97;1.80;;;;;;;11.38;100.00;99807.00;4928268;29;20645;-73
2022/11/03 11:11:22;;;;;;;12.05;2.55;;;;;;;11.54;100.00;99757.78;4932807;29;20070;-73
2022/11/03 11:14:25;;;;;;;9.50;1.95;;;;;;;11.80;100.00;99749.19;4918820;29;20680;-73
2022/11/03 11:16:52;;;;;;;8.52;3.15;;;;;;;12.04;100.00;99665.81;4919636;29;20067;-73
2022/11/03 11:19:20;;;;;;;10.90;2.25;;;;;;;11.77;100.00;99576.56;4920993;29;20046;-73
2022/11/03 11:21:46;;;;;;;14.77;3.58;;;;;;;12.19;100.00;99622.03;4918919;29;20049;-73
2022/11/03 11:24:12;;;;;;;11.38;2.75;;;;;;;12.12;100.00;99540.91;4917624;29;20040;-73
2022/11/03 11:26:38;;;;;;;14.20;2.53;;;;;;;12.05;100.00;99530.19;4917890;29;20032;-73
2022/11/03 11:29:10;;;;;;;8.65;2.08;;;;;;;12.00;100.00;99487.19;4919283;29;20867;-73
2022/11/03 11:31:37;;;;;;;10.63;2.47;;;;;;;12.03;100.00;99559.00;4911539;29;20024;-73
2022/11/03 11:34:08;;;;;;;10.60;2.42;;;;;;;11.66;100.00;99521.00;4903276;29;20032;-73
2022/11/03 11:36:38;;;;;;;7.63;2.78;;;;;;;12.04;100.00;99627.53;4919563;29;20942;-73
2022/11/03 11:39:09;;;;;;;7.13;2.50;;;;;;;11.78;100.00;99577.41;4917344;29;20024;-73
2022/11/03 11:42:04;;;;;;;8.77;2.42;;;;;;;11.68;100.00;99604.47;4917927;29;20067;-72
2022/11/03 11:44:38;;;;;;;5.63;2.25;;;;;;;11.90;100.00;99669.44;4935118;29;20036;-73
2022/11/03 11:47:22;;;;;;;13.07;2.40;;;;;;;11.97;100.00;99656.13;4921242;29;20028;-73
2022/11/03 11:49:48;;;;;;;7.93;2.35;;;;;;;12.00;100.00;99627.09;4918279;29;20064;-73
2022/11/03 11:52:14;;;;;;;;;;;;;;;11.90;100.00;99588.38;4914602;29;20960;-73